sensor_id;sensor_type;location;lat;lon;timestamp;temperature;humidity
14103;DHT22;7129;48.832;12.472;2022-11-11T00:01:38;5.50;99.90
14103;DHT22;7129;48.832;12.472;2022-11-11T00:06:39;5.50;99.90
14103;DHT22;7129;48.832;12.472;2022-11-11T00:11:43;5.60;99.90
14103;DHT22;7129;48.832;12.472;2022-11-11T00:16:45;5.60;99.90
14103;DHT22;7129;48.832;12.472;2022-11-11T00:27:40;5.50;99.90
14103;DHT22;7129;48.832;12.472;2022-11-11T00:32:41;5.70;99.90
14103;DHT22;7129;48.832;12.472;2022-11-11T00:37:45;5.60;99.90
14103;DHT22;7129;48.832;12.472;2022-11-11T00:42:49;5.60;99.90
14103;DHT22;7129;48.832;12.472;2022-11-11T00:47:51;5.70;99.90
14103;DHT22;7129;48.832;12.472;2022-11-11T00:53:12;5.60;99.90
14103;DHT22;7129;48.832;12.472;2022-11-11T00:58:15;5.70;99.90
14103;DHT22;7129;48.832;12.472;2022-11-11T01:03:19;5.70;99.90
14103;DHT22;7129;48.832;12.472;2022-11-11T01:08:24;5.80;99.90
14103;DHT22;7129;48.832;12.472;2022-11-11T01:13:30;5.80;99.90
14103;DHT22;7129;48.832;12.472;2022-11-11T01:18:43;5.80;99.90
14103;DHT22;7129;48.832;12.472;2022-11-11T01:23:46;5.80;99.90
14103;DHT22;7129;48.832;12.472;2022-11-11T01:28:51;5.80;99.90
14103;DHT22;7129;48.832;12.472;2022-11-11T01:33:53;5.80;99.90
14103;DHT22;7129;48.832;12.472;2022-11-11T01:39:01;5.80;99.90
14103;DHT22;7129;48.832;12.472;2022-11-11T01:49:48;5.90;99.90
14103;DHT22;7129;48.832;12.472;2022-11-11T01:54:53;5.90;99.90
14103;DHT22;7129;48.832;12.472;2022-11-11T01:59:59;5.80;99.90
14103;DHT22;7129;48.832;12.472;2022-11-11T02:05:04;5.90;99.90
14103;DHT22;7129;48.832;12.472;2022-11-11T02:10:26;5.80;99.90
14103;DHT22;7129;48.832;12.472;2022-11-11T02:15:29;5.70;99.90
14103;DHT22;7129;48.832;12.472;2022-11-11T02:20:35;5.60;99.90
14103;DHT22;7129;48.832;12.472;2022-11-11T02:25:41;5.70;99.90
14103;DHT22;7129;48.832;12.472;2022-11-11T02:30:44;5.70;99.90
14103;DHT22;7129;48.832;12.472;2022-11-11T02:35:49;5.60;99.90
14103;DHT22;7129;48.832;12.472;2022-11-11T02:40:57;5.60;99.90
14103;DHT22;7129;48.832;12.472;2022-11-11T02:46:19;5.50;99.90
14103;DHT22;7129;48.832;12.472;2022-11-11T02:51:20;5.30;99.90
14103;DHT22;7129;48.832;12.472;2022-11-11T02:56:24;5.30;99.90
14103;DHT22;7129;48.832;12.472;2022-11-11T03:01:40;5.40;99.90
14103;DHT22;7129;48.832;12.472;2022-11-11T03:06:44;5.40;99.90
14103;DHT22;7129;48.832;12.472;2022-11-11T03:11:48;5.40;99.90
14103;DHT22;7129;48.832;12.472;2022-11-11T03:16:52;5.60;99.90
14103;DHT22;7129;48.832;12.472;2022-11-11T03:22:11;5.50;99.90
14103;DHT22;7129;48.832;12.472;2022-11-11T03:27:15;5.40;99.90
14103;DHT22;7129;48.832;12.472;2022-11-11T03:32:17;5.40;99.90
14103;DHT22;7129;48.832;12.472;2022-11-11T03:37:19;5.40;99.90
14103;DHT22;7129;48.832;12.472;2022-11-11T03:42:39;5.40;99.90
14103;DHT22;7129;48.832;12.472;2022-11-11T03:47:43;5.10;99.90
14103;DHT22;7129;48.832;12.472;2022-11-11T03:52:45;5.20;99.90
14103;DHT22;7129;48.832;12.472;2022-11-11T03:57:55;5.30;99.90
14103;DHT22;7129;48.832;12.472;2022-11-11T04:03:13;5.30;99.90
14103;DHT22;7129;48.832;12.472;2022-11-11T04:08:33;5.30;99.90
14103;DHT22;7129;48.832;12.472;2022-11-11T04:13:54;5.30;99.90
14103;DHT22;7129;48.832;12.472;2022-11-11T04:19:15;5.30;99.90
14103;DHT22;7129;48.832;12.472;2022-11-11T04:24:34;5.30;99.90
14103;DHT22;7129;48.832;12.472;2022-11-11T04:29:54;5.20;99.90
14103;DHT22;7129;48.832;12.472;2022-11-11T04:34:57;5.40;99.90
14103;DHT22;7129;48.832;12.472;2022-11-11T04:40:00;5.30;99.90
14103;DHT22;7129;48.832;12.472;2022-11-11T04:45:21;5.30;99.90
14103;DHT22;7129;48.832;12.472;2022-11-11T04:50:31;5.30;99.90
14103;DHT22;7129;48.832;12.472;2022-11-11T04:55:34;5.30;99.90
14103;DHT22;7129;48.832;12.472;2022-11-11T05:01:06;5.30;99.90
14103;DHT22;7129;48.832;12.472;2022-11-11T05:06:08;5.50;99.90
14103;DHT22;7129;48.832;12.472;2022-11-11T05:11:39;5.40;99.90
14103;DHT22;7129;48.832;12.472;2022-11-11T05:16:45;5.30;99.90
14103;DHT22;7129;48.832;12.472;2022-11-11T05:22:10;5.40;99.90
14103;DHT22;7129;48.832;12.472;2022-11-11T05:27:13;5.30;99.90
14103;DHT22;7129;48.832;12.472;2022-11-11T05:32:31;5.30;99.90
14103;DHT22;7129;48.832;12.472;2022-11-11T05:37:33;5.30;99.90
14103;DHT22;7129;48.832;12.472;2022-11-11T05:42:35;5.20;99.90
14103;DHT22;7129;48.832;12.472;2022-11-11T05:47:42;5.10;99.90
14103;DHT22;7129;48.832;12.472;2022-11-11T05:52:51;5.00;99.90
14103;DHT22;7129;48.832;12.472;2022-11-11T05:57:53;5.10;99.90
14103;DHT22;7129;48.832;12.472;2022-11-11T06:03:02;5.00;99.90
14103;DHT22;7129;48.832;12.472;2022-11-11T06:08:05;5.10;99.90
14103;DHT22;7129;48.832;12.472;2022-11-11T06:13:07;5.10;99.90
14103;DHT22;7129;48.832;12.472;2022-11-11T06:18:14;5.00;99.90
14103;DHT22;7129;48.832;12.472;2022-11-11T06:23:16;5.10;99.90
14103;DHT22;7129;48.832;12.472;2022-11-11T06:28:18;5.00;99.90
14103;DHT22;7129;48.832;12.472;2022-11-11T06:33:21;5.00;99.90
14103;DHT22;7129;48.832;12.472;2022-11-11T06:38:23;5.10;99.90
14103;DHT22;7129;48.832;12.472;2022-11-11T06:43:25;5.10;99.90
14103;DHT22;7129;48.832;12.472;2022-11-11T06:48:28;5.10;99.90
14103;DHT22;7129;48.832;12.472;2022-11-11T06:53:30;5.00;99.90
14103;DHT22;7129;48.832;12.472;2022-11-11T06:58:32;5.00;99.90
14103;DHT22;7129;48.832;12.472;2022-11-11T07:03:36;5.00;99.90
14103;DHT22;7129;48.832;12.472;2022-11-11T07:08:38;5.10;99.90
14103;DHT22;7129;48.832;12.472;2022-11-11T07:13:43;5.10;99.90
14103;DHT22;7129;48.832;12.472;2022-11-11T07:18:47;5.10;99.90
14103;DHT22;7129;48.832;12.472;2022-11-11T07:23:49;5.20;99.90
14103;DHT22;7129;48.832;12.472;2022-11-11T07:28:51;5.20;99.90
14103;DHT22;7129;48.832;12.472;2022-11-11T07:33:54;5.20;99.90
14103;DHT22;7129;48.832;12.472;2022-11-11T07:38:57;5.10;99.90
14103;DHT22;7129;48.832;12.472;2022-11-11T07:43:59;5.10;99.90
14103;DHT22;7129;48.832;12.472;2022-11-11T07:49:03;5.10;99.90
14103;DHT22;7129;48.832;12.472;2022-11-11T07:54:05;5.10;99.90
14103;DHT22;7129;48.832;12.472;2022-11-11T07:59:07;5.10;99.90
14103;DHT22;7129;48.832;12.472;2022-11-11T08:04:24;5.20;99.90
14103;DHT22;7129;48.832;12.472;2022-11-11T08:09:26;5.20;99.90
14103;DHT22;7129;48.832;12.472;2022-11-11T08:14:28;5.30;99.90
14103;DHT22;7129;48.832;12.472;2022-11-11T08:19:31;5.40;99.90
14103;DHT22;7129;48.832;12.472;2022-11-11T08:24:33;5.40;99.90
14103;DHT22;7129;48.832;12.472;2022-11-11T08:29:38;5.40;99.90
14103;DHT22;7129;48.832;12.472;2022-11-11T08:34:41;5.50;99.90
14103;DHT22;7129;48.832;12.472;2022-11-11T08:39:43;5.60;99.90
14103;DHT22;7129;48.832;12.472;2022-11-11T08:44:45;5.70;99.90
14103;DHT22;7129;48.832;12.472;2022-11-11T08:49:49;5.80;99.90
14103;DHT22;7129;48.832;12.472;2022-11-11T08:54:50;5.90;99.90
14103;DHT22;7129;48.832;12.472;2022-11-11T08:59:53;5.90;99.90
14103;DHT22;7129;48.832;12.472;2022-11-11T09:04:56;5.90;99.90
14103;DHT22;7129;48.832;12.472;2022-11-11T09:09:58;5.90;99.90
14103;DHT22;7129;48.832;12.472;2022-11-11T09:15:00;5.90;99.90
14103;DHT22;7129;48.832;12.472;2022-11-11T09:20:04;6.10;99.90
14103;DHT22;7129;48.832;12.472;2022-11-11T09:25:07;6.00;99.90
14103;DHT22;7129;48.832;12.472;2022-11-11T09:30:10;6.10;99.90
14103;DHT22;7129;48.832;12.472;2022-11-11T09:35:13;6.10;99.90
14103;DHT22;7129;48.832;12.472;2022-11-11T09:40:17;6.20;99.90
14103;DHT22;7129;48.832;12.472;2022-11-11T09:51:15;6.30;99.90
14103;DHT22;7129;48.832;12.472;2022-11-11T09:56:22;6.40;99.90
14103;DHT22;7129;48.832;12.472;2022-11-11T10:01:26;6.40;99.90
14103;DHT22;7129;48.832;12.472;2022-11-11T10:06:32;6.50;99.90
14103;DHT22;7129;48.832;12.472;2022-11-11T10:18:00;6.70;99.90
14103;DHT22;7129;48.832;12.472;2022-11-11T10:23:13;6.70;99.90
14103;DHT22;7129;48.832;12.472;2022-11-11T10:34:31;6.90;99.90
14103;DHT22;7129;48.832;12.472;2022-11-11T10:39:45;6.90;99.90
14103;DHT22;7129;48.832;12.472;2022-11-11T10:44:55;7.00;99.90
14103;DHT22;7129;48.832;12.472;2022-11-11T10:50:03;7.00;99.90
14103;DHT22;7129;48.832;12.472;2022-11-11T10:55:13;7.20;99.90
14103;DHT22;7129;48.832;12.472;2022-11-11T11:00:16;7.40;99.90
14103;DHT22;7129;48.832;12.472;2022-11-11T11:05:23;7.50;99.90
14103;DHT22;7129;48.832;12.472;2022-11-11T11:10:31;7.50;99.90
14103;DHT22;7129;48.832;12.472;2022-11-11T11:15:39;7.70;99.90
14103;DHT22;7129;48.832;12.472;2022-11-11T11:20:55;7.70;99.90
14103;DHT22;7129;48.832;12.472;2022-11-11T11:25:59;7.70;99.90
14103;DHT22;7129;48.832;12.472;2022-11-11T11:31:04;7.80;99.90
14103;DHT22;7129;48.832;12.472;2022-11-11T11:36:15;7.70;99.90
14103;DHT22;7129;48.832;12.472;2022-11-11T11:41:35;7.80;99.90
14103;DHT22;7129;48.832;12.472;2022-11-11T11:46:39;7.80;99.90
14103;DHT22;7129;48.832;12.472;2022-11-11T11:51:51;7.80;99.90
14103;DHT22;7129;48.832;12.472;2022-11-11T11:56:59;7.80;99.90
14103;DHT22;7129;48.832;12.472;2022-11-11T12:02:11;7.80;99.90
14103;DHT22;7129;48.832;12.472;2022-11-11T12:07:31;7.80;99.90
14103;DHT22;7129;48.832;12.472;2022-11-11T12:12:44;7.70;99.90
14103;DHT22;7129;48.832;12.472;2022-11-11T12:17:56;7.80;99.90
14103;DHT22;7129;48.832;12.472;2022-11-11T12:23:14;7.70;99.90
14103;DHT22;7129;48.832;12.472;2022-11-11T12:28:29;7.80;99.90
14103;DHT22;7129;48.832;12.472;2022-11-11T12:33:52;7.80;99.90
14103;DHT22;7129;48.832;12.472;2022-11-11T12:38:59;7.80;99.90
14103;DHT22;7129;48.832;12.472;2022-11-11T12:44:07;7.80;99.90
14103;DHT22;7129;48.832;12.472;2022-11-11T12:49:35;7.90;99.90
14103;DHT22;7129;48.832;12.472;2022-11-11T12:54:47;7.90;99.90
14103;DHT22;7129;48.832;12.472;2022-11-11T13:00:09;7.90;99.90
14103;DHT22;7129;48.832;12.472;2022-11-11T13:05:17;8.00;99.90
14103;DHT22;7129;48.832;12.472;2022-11-11T13:10:25;8.00;99.90
14103;DHT22;7129;48.832;12.472;2022-11-11T13:15:30;8.10;99.90
14103;DHT22;7129;48.832;12.472;2022-11-11T13:20:43;8.10;99.90
14103;DHT22;7129;48.832;12.472;2022-11-11T13:25:52;8.10;99.90
14103;DHT22;7129;48.832;12.472;2022-11-11T13:31:14;8.10;99.90
14103;DHT22;7129;48.832;12.472;2022-11-11T13:36:22;8.10;99.90
14103;DHT22;7129;48.832;12.472;2022-11-11T13:41:28;7.90;99.90
14103;DHT22;7129;48.832;12.472;2022-11-11T13:46:34;8.00;99.90
14103;DHT22;7129;48.832;12.472;2022-11-11T13:51:38;7.90;99.90
14103;DHT22;7129;48.832;12.472;2022-11-11T13:56:42;8.10;99.90
14103;DHT22;7129;48.832;12.472;2022-11-11T14:01:46;8.30;99.90
14103;DHT22;7129;48.832;12.472;2022-11-11T14:06:53;8.20;99.90
14103;DHT22;7129;48.832;12.472;2022-11-11T14:12:19;8.20;99.90
14103;DHT22;7129;48.832;12.472;2022-11-11T14:17:22;8.30;99.90
14103;DHT22;7129;48.832;12.472;2022-11-11T14:22:30;8.30;99.90
14103;DHT22;7129;48.832;12.472;2022-11-11T14:27:33;8.30;99.90
14103;DHT22;7129;48.832;12.472;2022-11-11T14:32:45;8.30;99.90
14103;DHT22;7129;48.832;12.472;2022-11-11T14:38:11;8.20;99.90
14103;DHT22;7129;48.832;12.472;2022-11-11T14:43:38;8.20;99.90
14103;DHT22;7129;48.832;12.472;2022-11-11T14:48:56;8.10;99.90
14103;DHT22;7129;48.832;12.472;2022-11-11T14:53:59;8.20;99.90
14103;DHT22;7129;48.832;12.472;2022-11-11T14:59:05;8.20;99.90
14103;DHT22;7129;48.832;12.472;2022-11-11T15:04:09;8.20;99.90
14103;DHT22;7129;48.832;12.472;2022-11-11T15:09:43;8.20;99.90
14103;DHT22;7129;48.832;12.472;2022-11-11T15:14:53;8.10;99.90
14103;DHT22;7129;48.832;12.472;2022-11-11T15:20:10;8.10;99.90
14103;DHT22;7129;48.832;12.472;2022-11-11T15:25:23;8.10;99.90
14103;DHT22;7129;48.832;12.472;2022-11-11T15:30:47;8.00;99.90
14103;DHT22;7129;48.832;12.472;2022-11-11T15:35:57;7.90;99.90
14103;DHT22;7129;48.832;12.472;2022-11-11T15:41:02;7.90;99.90
14103;DHT22;7129;48.832;12.472;2022-11-11T15:46:04;7.90;99.90
14103;DHT22;7129;48.832;12.472;2022-11-11T15:51:26;7.80;99.90
14103;DHT22;7129;48.832;12.472;2022-11-11T15:56:30;7.70;99.90
14103;DHT22;7129;48.832;12.472;2022-11-11T16:01:32;7.70;99.90
14103;DHT22;7129;48.832;12.472;2022-11-11T16:06:37;7.70;99.90
14103;DHT22;7129;48.832;12.472;2022-11-11T16:11:39;7.70;99.90
14103;DHT22;7129;48.832;12.472;2022-11-11T16:16:42;7.70;99.90
14103;DHT22;7129;48.832;12.472;2022-11-11T16:22:04;7.60;99.90
14103;DHT22;7129;48.832;12.472;2022-11-11T16:27:14;7.70;99.90
14103;DHT22;7129;48.832;12.472;2022-11-11T16:32:30;7.70;99.90
14103;DHT22;7129;48.832;12.472;2022-11-11T16:37:53;7.60;99.90
14103;DHT22;7129;48.832;12.472;2022-11-11T16:43:17;7.70;99.90
14103;DHT22;7129;48.832;12.472;2022-11-11T16:48:43;7.60;99.90
14103;DHT22;7129;48.832;12.472;2022-11-11T16:53:53;7.60;99.90
14103;DHT22;7129;48.832;12.472;2022-11-11T16:59:01;7.50;99.90
14103;DHT22;7129;48.832;12.472;2022-11-11T17:04:03;7.50;99.90
14103;DHT22;7129;48.832;12.472;2022-11-11T17:20:43;7.40;99.90
14103;DHT22;7129;48.832;12.472;2022-11-11T17:26:07;7.40;99.90
14103;DHT22;7129;48.832;12.472;2022-11-11T17:31:10;7.40;99.90
14103;DHT22;7129;48.832;12.472;2022-11-11T17:36:12;7.40;99.90
14103;DHT22;7129;48.832;12.472;2022-11-11T17:47:03;7.30;99.90
14103;DHT22;7129;48.832;12.472;2022-11-11T17:52:04;7.40;99.90
14103;DHT22;7129;48.832;12.472;2022-11-11T17:57:23;7.30;99.90
14103;DHT22;7129;48.832;12.472;2022-11-11T18:02:42;7.30;99.90
14103;DHT22;7129;48.832;12.472;2022-11-11T18:07:44;7.20;99.90
14103;DHT22;7129;48.832;12.472;2022-11-11T18:12:46;7.20;99.90
14103;DHT22;7129;48.832;12.472;2022-11-11T18:17:50;7.20;99.90
14103;DHT22;7129;48.832;12.472;2022-11-11T18:22:54;7.20;99.90
14103;DHT22;7129;48.832;12.472;2022-11-11T18:27:56;7.20;99.90
14103;DHT22;7129;48.832;12.472;2022-11-11T18:32:59;7.10;99.90
14103;DHT22;7129;48.832;12.472;2022-11-11T18:38:01;7.10;99.90
14103;DHT22;7129;48.832;12.472;2022-11-11T18:43:03;7.20;99.90
14103;DHT22;7129;48.832;12.472;2022-11-11T18:48:10;7.10;99.90
14103;DHT22;7129;48.832;12.472;2022-11-11T18:53:51;7.10;99.90
14103;DHT22;7129;48.832;12.472;2022-11-11T18:59:14;7.10;99.90
14103;DHT22;7129;48.832;12.472;2022-11-11T19:22:46;7.10;99.90
14103;DHT22;7129;48.832;12.472;2022-11-11T19:27:52;7.00;99.90
14103;DHT22;7129;48.832;12.472;2022-11-11T19:33:01;7.00;99.90
14103;DHT22;7129;48.832;12.472;2022-11-11T19:38:05;7.00;99.90
14103;DHT22;7129;48.832;12.472;2022-11-11T19:43:28;7.00;99.90
14103;DHT22;7129;48.832;12.472;2022-11-11T19:49:03;6.90;99.90
14103;DHT22;7129;48.832;12.472;2022-11-11T19:59:38;6.70;99.90
14103;DHT22;7129;48.832;12.472;2022-11-11T20:04:40;6.70;99.90
14103;DHT22;7129;48.832;12.472;2022-11-11T20:09:42;6.80;99.90
14103;DHT22;7129;48.832;12.472;2022-11-11T20:14:45;6.60;99.90
14103;DHT22;7129;48.832;12.472;2022-11-11T20:19:47;6.50;99.90
14103;DHT22;7129;48.832;12.472;2022-11-11T20:24:49;6.60;99.90
14103;DHT22;7129;48.832;12.472;2022-11-11T20:29:52;6.60;99.90
14103;DHT22;7129;48.832;12.472;2022-11-11T20:34:54;6.60;99.90
14103;DHT22;7129;48.832;12.472;2022-11-11T20:39:56;6.60;99.90
14103;DHT22;7129;48.832;12.472;2022-11-11T20:44:59;6.70;99.90
14103;DHT22;7129;48.832;12.472;2022-11-11T20:50:01;6.70;99.90
14103;DHT22;7129;48.832;12.472;2022-11-11T20:55:04;6.60;99.90
14103;DHT22;7129;48.832;12.472;2022-11-11T21:00:09;6.60;99.90
14103;DHT22;7129;48.832;12.472;2022-11-11T21:05:11;6.60;99.90
14103;DHT22;7129;48.832;12.472;2022-11-11T21:10:13;6.60;99.90
14103;DHT22;7129;48.832;12.472;2022-11-11T21:15:16;6.50;99.90
14103;DHT22;7129;48.832;12.472;2022-11-11T21:20:18;6.50;99.90
14103;DHT22;7129;48.832;12.472;2022-11-11T21:25:20;6.50;99.90
14103;DHT22;7129;48.832;12.472;2022-11-11T21:36:01;6.50;99.90
14103;DHT22;7129;48.832;12.472;2022-11-11T21:41:05;6.40;99.90
14103;DHT22;7129;48.832;12.472;2022-11-11T21:52:09;6.10;99.90
14103;DHT22;7129;48.832;12.472;2022-11-11T21:57:11;6.20;99.90
14103;DHT22;7129;48.832;12.472;2022-11-11T22:02:13;6.10;99.90
14103;DHT22;7129;48.832;12.472;2022-11-11T22:07:17;6.10;99.90
14103;DHT22;7129;48.832;12.472;2022-11-11T22:12:18;6.30;99.90
14103;DHT22;7129;48.832;12.472;2022-11-11T22:17:20;6.20;99.90
14103;DHT22;7129;48.832;12.472;2022-11-11T22:22:24;6.20;99.90
14103;DHT22;7129;48.832;12.472;2022-11-11T22:27:26;6.20;99.90
14103;DHT22;7129;48.832;12.472;2022-11-11T22:32:28;6.20;99.90
14103;DHT22;7129;48.832;12.472;2022-11-11T22:37:32;6.10;99.90
14103;DHT22;7129;48.832;12.472;2022-11-11T22:42:37;6.20;99.90
14103;DHT22;7129;48.832;12.472;2022-11-11T22:47:39;6.20;99.90
14103;DHT22;7129;48.832;12.472;2022-11-11T22:52:46;6.20;99.90
14103;DHT22;7129;48.832;12.472;2022-11-11T22:57:48;6.10;99.90
14103;DHT22;7129;48.832;12.472;2022-11-11T23:02:50;6.10;99.90
14103;DHT22;7129;48.832;12.472;2022-11-11T23:07:53;6.10;99.90
14103;DHT22;7129;48.832;12.472;2022-11-11T23:12:55;6.10;99.90
14103;DHT22;7129;48.832;12.472;2022-11-11T23:17:57;6.10;99.90
14103;DHT22;7129;48.832;12.472;2022-11-11T23:23:01;6.10;99.90
14103;DHT22;7129;48.832;12.472;2022-11-11T23:28:03;6.00;99.90
14103;DHT22;7129;48.832;12.472;2022-11-11T23:33:05;5.90;99.90
14103;DHT22;7129;48.832;12.472;2022-11-11T23:38:09;5.90;99.90
14103;DHT22;7129;48.832;12.472;2022-11-11T23:43:11;5.90;99.90
14103;DHT22;7129;48.832;12.472;2022-11-11T23:53:46;5.90;99.90
14103;DHT22;7129;48.832;12.472;2022-11-11T23:58:47;5.80;99.90
